Time;durP1;ratioP1;P1;durP2;ratioP2;P2;SDS_P1;SDS_P2;PMS_P1;PMS_P2;Temp;Humidity;BMP_temperature;BMP_pressure;BME280_temperature;BME280_humidity;BME280_pressure;Samples;Min_cycle;Max_cycle;Signal;HPM_P1;HPM_P2
2024/01/24 00:02:19;;;;;;;2.58;0.98;;;12.30;99.90;;;;;;5026351;28;20065;-34
2024/01/24 00:04:45;;;;;;;2.97;1.00;;;12.30;99.90;;;;;;5036788;28;20456;-34
2024/01/24 00:07:10;;;;;;;2.92;0.90;;;12.30;99.90;;;;;;5038308;28;20461;-34
2024/01/24 00:09:36;;;;;;;2.40;0.90;;;12.30;99.90;;;;;;5025973;28;20135;-35
2024/01/24 00:12:02;;;;;;;3.10;1.08;;;12.30;99.90;;;;;;5029966;28;20517;-34
2024/01/24 00:14:28;;;;;;;2.97;1.33;;;12.30;99.90;;;;;;5031149;28;20489;-34
2024/01/24 00:16:54;;;;;;;3.50;2.17;;;12.40;99.90;;;;;;5030567;28;20053;-35
2024/01/24 00:19:19;;;;;;;6.65;1.08;;;12.50;99.90;;;;;;5035250;28;20063;-34
2024/01/24 00:21:46;;;;;;;2.05;0.70;;;12.50;99.90;;;;;;5026796;28;20530;-34
2024/01/24 00:24:12;;;;;;;2.22;0.65;;;12.50;99.90;;;;;;5026070;28;20080;-34
2024/01/24 00:26:38;;;;;;;1.70;0.60;;;12.60;99.90;;;;;;5028882;28;20053;-34
2024/01/24 00:29:04;;;;;;;3.40;0.88;;;12.60;99.90;;;;;;5032792;28;20136;-34
2024/01/24 00:31:29;;;;;;;1.70;0.70;;;12.60;99.90;;;;;;5023865;28;20064;-35
2024/01/24 00:33:55;;;;;;;2.53;0.93;;;12.60;99.90;;;;;;5033035;28;20055;-34
2024/01/24 00:36:22;;;;;;;1.35;0.70;;;12.60;99.90;;;;;;5033023;28;20132;-35
2024/01/24 00:38:47;;;;;;;2.40;0.70;;;12.70;99.90;;;;;;5027831;28;20518;-35
2024/01/24 00:41:13;;;;;;;1.30;0.55;;;12.70;99.90;;;;;;5026709;28;20041;-34
2024/01/24 00:43:39;;;;;;;4.15;2.03;;;12.80;99.90;;;;;;5033862;28;20047;-34
2024/01/24 00:46:05;;;;;;;1.60;0.85;;;12.80;99.90;;;;;;5022782;28;20064;-34
2024/01/24 00:48:30;;;;;;;7.28;6.53;;;12.80;99.90;;;;;;5027894;28;20049;-34
2024/01/24 00:50:56;;;;;;;3.10;0.60;;;12.80;99.90;;;;;;5025661;28;20116;-34
2024/01/24 00:53:23;;;;;;;2.90;1.73;;;12.80;99.90;;;;;;5029116;28;20540;-34
2024/01/24 00:55:49;;;;;;;2.78;0.65;;;12.80;99.90;;;;;;5030374;28;20051;-34
2024/01/24 00:58:15;;;;;;;3.10;0.70;;;12.70;99.90;;;;;;5038067;28;20430;-34
2024/01/24 01:00:40;;;;;;;1.73;0.88;;;12.70;99.90;;;;;;5029955;28;20514;-34
2024/01/24 01:03:08;;;;;;;2.40;0.50;;;12.60;99.90;;;;;;5024305;28;20688;-35
2024/01/24 01:05:33;;;;;;;1.67;0.55;;;12.50;99.90;;;;;;5025284;28;20147;-34
2024/01/24 01:07:59;;;;;;;2.85;0.32;;;12.40;99.90;;;;;;5029071;28;20132;-34
2024/01/24 01:10:25;;;;;;;3.03;0.75;;;12.30;99.90;;;;;;5033765;28;20087;-34
2024/01/24 01:12:51;;;;;;;4.95;0.55;;;12.30;99.90;;;;;;5020993;28;20053;-35
2024/01/24 01:15:17;;;;;;;0.50;0.30;;;12.20;99.90;;;;;;5019867;28;20561;-35
2024/01/24 01:17:42;;;;;;;0.93;0.40;;;12.30;99.90;;;;;;5021819;28;20061;-35
2024/01/24 01:20:12;;;;;;;2.90;0.43;;;12.30;99.90;;;;;;5028835;28;20044;-34
2024/01/24 01:22:38;;;;;;;1.58;0.60;;;12.30;99.90;;;;;;5018607;28;20081;-35
2024/01/24 01:25:03;;;;;;;1.92;0.40;;;12.40;99.90;;;;;;5025627;28;20057;-34
2024/01/24 01:27:29;;;;;;;1.55;1.20;;;12.30;99.90;;;;;;5033763;28;20424;-34
2024/01/24 01:29:55;;;;;;;2.25;0.98;;;12.30;99.90;;;;;;5032250;28;20954;-34
2024/01/24 01:32:20;;;;;;;0.90;0.30;;;12.30;99.90;;;;;;5031766;28;20060;-34
2024/01/24 01:34:46;;;;;;;1.70;0.40;;;12.30;99.90;;;;;;5032101;28;20057;-34
2024/01/24 01:37:12;;;;;;;2.58;0.40;;;12.30;99.90;;;;;;5024242;28;20053;-34
2024/01/24 01:39:38;;;;;;;1.60;0.30;;;12.30;99.90;;;;;;5030698;28;20053;-34
2024/01/24 01:42:04;;;;;;;0.90;0.43;;;12.30;99.90;;;;;;5025314;28;20152;-34
2024/01/24 01:44:30;;;;;;;2.72;0.40;;;12.30;99.90;;;;;;5027228;28;20055;-35
2024/01/24 01:46:55;;;;;;;2.88;0.40;;;12.20;99.90;;;;;;5030650;28;20056;-34
2024/01/24 01:49:21;;;;;;;1.15;0.40;;;12.30;99.90;;;;;;5038173;28;20128;-34
2024/01/24 01:51:49;;;;;;;3.13;1.48;;;12.10;99.90;;;;;;5038010;28;20076;-34
2024/01/24 01:54:16;;;;;;;1.50;0.50;;;12.20;99.90;;;;;;5029806;28;20076;-34
2024/01/24 01:56:42;;;;;;;1.48;0.77;;;12.10;99.90;;;;;;5035352;28;20140;-34
2024/01/24 01:59:09;;;;;;;8.02;0.70;;;12.10;99.90;;;;;;5031185;28;20466;-34
2024/01/24 02:01:35;;;;;;;5.35;0.45;;;12.20;99.90;;;;;;5032175;28;20534;-34
2024/01/24 02:04:02;;;;;;;2.45;0.35;;;12.20;99.90;;;;;;5034557;28;20053;-34
2024/01/24 02:06:28;;;;;;;1.50;0.40;;;12.20;99.90;;;;;;5032446;28;20061;-34
2024/01/24 02:08:54;;;;;;;1.70;0.40;;;12.20;99.90;;;;;;5031432;28;20392;-34
2024/01/24 02:11:21;;;;;;;2.33;0.60;;;12.30;99.90;;;;;;5025727;28;20048;-34
2024/01/24 02:13:46;;;;;;;2.13;0.73;;;12.20;99.90;;;;;;5030951;28;20054;-34
2024/01/24 02:16:13;;;;;;;1.30;0.40;;;12.30;99.90;;;;;;5029816;28;20061;-34
2024/01/24 02:18:41;;;;;;;5.82;0.80;;;12.20;99.90;;;;;;5030926;28;20056;-35
2024/01/24 02:21:07;;;;;;;4.03;0.68;;;12.00;99.90;;;;;;5031301;28;20049;-35
2024/01/24 02:23:33;;;;;;;4.57;0.60;;;11.90;99.90;;;;;;5024790;28;20115;-35
2024/01/24 02:25:59;;;;;;;2.40;0.63;;;11.60;99.90;;;;;;5010027;28;20054;-34
2024/01/24 02:28:25;;;;;;;5.40;0.63;;;11.50;99.90;;;;;;5014560;28;20052;-35
2024/01/24 02:30:50;;;;;;;4.00;0.80;;;11.50;99.90;;;;;;5018075;28;20060;-35
2024/01/24 02:33:16;;;;;;;6.22;0.70;;;11.40;99.90;;;;;;5019781;28;20475;-35
2024/01/24 02:35:42;;;;;;;7.18;0.90;;;11.30;99.90;;;;;;5014151;28;20058;-35
2024/01/24 02:38:08;;;;;;;5.18;0.85;;;11.30;99.90;;;;;;5016810;28;20136;-34
2024/01/24 02:40:33;;;;;;;5.78;1.35;;;11.20;99.90;;;;;;5022105;28;20053;-35
2024/01/24 02:42:59;;;;;;;6.57;0.80;;;11.10;99.90;;;;;;5029387;28;20128;-34
2024/01/24 02:45:25;;;;;;;6.28;0.95;;;11.00;99.90;;;;;;5034427;28;20064;-35
2024/01/24 02:47:50;;;;;;;5.38;0.98;;;10.90;99.90;;;;;;5029446;28;20135;-34
2024/01/24 02:50:16;;;;;;;8.65;2.22;;;10.90;99.90;;;;;;5033262;28;20404;-34
2024/01/24 02:52:42;;;;;;;4.13;0.70;;;10.90;99.90;;;;;;5030315;28;20197;-34
2024/01/24 02:55:15;;;;;;;6.25;1.10;;;10.70;99.90;;;;;;5032186;28;20056;-34
2024/01/24 02:57:41;;;;;;;7.70;0.88;;;10.70;99.90;;;;;;5033080;28;20053;-34
2024/01/24 03:00:08;;;;;;;6.80;0.77;;;10.50;99.90;;;;;;5033412;28;20044;-34
2024/01/24 03:02:34;;;;;;;7.97;1.00;;;10.50;99.90;;;;;;5029608;28;20486;-34
2024/01/24 03:05:00;;;;;;;6.32;1.13;;;10.40;99.90;;;;;;5031500;28;20049;-34
2024/01/24 03:07:26;;;;;;;5.50;1.30;;;10.50;99.90;;;;;;5032101;28;20114;-34
2024/01/24 03:09:52;;;;;;;4.03;0.88;;;10.50;99.90;;;;;;5028995;28;20053;-34
2024/01/24 03:12:19;;;;;;;7.15;1.00;;;10.40;99.90;;;;;;5026442;28;20053;-34
2024/01/24 03:14:45;;;;;;;8.00;0.95;;;10.50;99.90;;;;;;5034080;28;20088;-34
2024/01/24 03:17:10;;;;;;;5.53;0.95;;;10.60;99.90;;;;;;5013157;28;20155;-34
2024/01/24 03:19:36;;;;;;;4.82;1.02;;;10.50;99.90;;;;;;5029463;28;20432;-34
2024/01/24 03:22:02;;;;;;;9.05;1.20;;;10.50;99.90;;;;;;5027513;28;20893;-34
2024/01/24 03:24:28;;;;;;;7.05;0.90;;;10.50;99.90;;;;;;5027944;28;20053;-35
2024/01/24 03:26:54;;;;;;;7.63;0.77;;;10.50;99.90;;;;;;5025572;28;20049;-34
2024/01/24 03:29:19;;;;;;;7.90;1.75;;;10.50;99.90;;;;;;5030691;28;20046;-34
2024/01/24 03:31:45;;;;;;;6.53;0.80;;;10.50;99.90;;;;;;5030456;28;20072;-34
2024/01/24 03:34:11;;;;;;;5.57;1.17;;;10.50;99.90;;;;;;5034648;28;20079;-34
2024/01/24 03:36:37;;;;;;;12.68;1.98;;;10.50;99.90;;;;;;5027271;28;20487;-35
2024/01/24 03:39:09;;;;;;;8.65;1.45;;;10.50;99.90;;;;;;5023837;28;20131;-35
2024/01/24 03:41:37;;;;;;;9.52;1.33;;;10.40;99.90;;;;;;5031770;28;20053;-34
2024/01/24 03:44:03;;;;;;;11.50;1.63;;;10.40;99.90;;;;;;5035065;28;20053;-35
2024/01/24 03:46:29;;;;;;;14.07;1.90;;;10.30;99.90;;;;;;5026101;28;20045;-35
2024/01/24 03:48:54;;;;;;;9.95;1.50;;;10.30;99.90;;;;;;5027778;28;20047;-35
2024/01/24 03:51:20;;;;;;;7.43;1.83;;;10.30;99.90;;;;;;5028614;28;20298;-35
2024/01/24 03:53:46;;;;;;;10.48;1.35;;;10.30;99.90;;;;;;5032239;28;20059;-35
2024/01/24 03:56:11;;;;;;;12.75;1.90;;;10.40;99.90;;;;;;5027298;28;20506;-35
2024/01/24 03:58:37;;;;;;;7.70;1.70;;;10.50;99.90;;;;;;5034379;28;20057;-35
2024/01/24 04:01:04;;;;;;;7.22;2.28;;;10.50;99.90;;;;;;5033275;28;20434;-35
2024/01/24 04:03:29;;;;;;;11.57;1.50;;;10.80;99.90;;;;;;5030666;28;20048;-35
2024/01/24 04:05:55;;;;;;;15.50;2.67;;;11.00;99.90;;;;;;5032348;28;20049;-35
2024/01/24 04:08:21;;;;;;;12.55;2.10;;;11.00;99.90;;;;;;5025301;28;20053;-35
2024/01/24 04:10:47;;;;;;;9.20;2.13;;;11.00;99.90;;;;;;5032457;28;20059;-35
2024/01/24 04:13:14;;;;;;;11.15;2.63;;;11.10;99.90;;;;;;5030803;28;20124;-35
2024/01/24 04:15:41;;;;;;;11.02;2.92;;;11.10;99.90;;;;;;5032195;28;20041;-35
2024/01/24 04:18:06;;;;;;;9.77;2.58;;;11.20;99.90;;;;;;5028639;28;20045;-35
2024/01/24 04:20:32;;;;;;;6.00;1.80;;;11.10;99.90;;;;;;5015980;28;20037;-35
2024/01/24 04:22:58;;;;;;;11.40;2.38;;;11.20;99.90;;;;;;5025945;28;20071;-35
2024/01/24 04:25:24;;;;;;;11.60;2.15;;;11.20;99.90;;;;;;5026187;28;20543;-35
2024/01/24 04:27:50;;;;;;;11.55;3.15;;;11.20;99.90;;;;;;5027426;28;20054;-35
2024/01/24 04:30:16;;;;;;;8.07;2.50;;;11.20;99.90;;;;;;5030926;28;20407;-35
2024/01/24 04:32:41;;;;;;;11.95;1.77;;;11.20;99.90;;;;;;5031950;28;20402;-35
2024/01/24 04:35:07;;;;;;;8.95;1.65;;;11.30;99.90;;;;;;5033731;28;20136;-35
2024/01/24 04:37:33;;;;;;;12.45;2.25;;;11.30;99.90;;;;;;5027533;28;20054;-35
2024/01/24 04:39:59;;;;;;;11.80;2.38;;;11.30;99.90;;;;;;5021956;28;20155;-35
2024/01/24 04:42:24;;;;;;;16.15;3.20;;;11.30;99.90;;;;;;5025486;28;20049;-35
2024/01/24 04:44:50;;;;;;;15.40;4.30;;;11.20;99.90;;;;;;5022007;28;20060;-35
2024/01/24 04:47:16;;;;;;;17.90;2.72;;;11.20;99.90;;;;;;5026292;28;20054;-35
2024/01/24 04:49:42;;;;;;;15.50;2.30;;;11.20;99.90;;;;;;5033265;28;20050;-35
2024/01/24 04:52:08;;;;;;;26.90;2.63;;;11.10;99.90;;;;;;5027638;28;20056;-35
2024/01/24 04:54:36;;;;;;;17.67;2.47;;;11.10;99.90;;;;;;5028629;28;20056;-35
2024/01/24 04:57:03;;;;;;;16.35;2.90;;;11.10;99.90;;;;;;5023034;28;20063;-35
2024/01/24 04:59:29;;;;;;;10.00;2.63;;;11.00;99.90;;;;;;5036698;28;20517;-35
2024/01/24 05:01:55;;;;;;;16.63;4.68;;;11.00;99.90;;;;;;5032352;28;20049;-35
2024/01/24 05:04:21;;;;;;;25.52;3.47;;;11.00;99.90;;;;;;5029182;28;20062;-36
2024/01/24 05:06:47;;;;;;;19.77;3.38;;;11.00;99.90;;;;;;5031621;28;20139;-35
2024/01/24 05:09:14;;;;;;;21.20;2.92;;;10.90;99.90;;;;;;5030829;28;20437;-35
2024/01/24 05:11:40;;;;;;;12.63;2.08;;;10.90;99.90;;;;;;5033851;28;20052;-35
2024/01/24 05:14:06;;;;;;;12.35;2.45;;;10.70;99.90;;;;;;5028366;28;20049;-35
2024/01/24 05:16:32;;;;;;;17.70;3.00;;;10.70;99.90;;;;;;5032566;28;20525;-35
2024/01/24 05:18:58;;;;;;;10.95;2.55;;;10.60;99.90;;;;;;5034344;28;20053;-35
2024/01/24 05:21:24;;;;;;;14.73;2.67;;;10.60;99.90;;;;;;5032962;28;20064;-35
2024/01/24 05:23:51;;;;;;;13.50;3.08;;;10.60;99.90;;;;;;5027241;28;20045;-35
2024/01/24 05:26:17;;;;;;;16.83;3.17;;;10.60;99.90;;;;;;5031253;28;20127;-35
2024/01/24 05:28:43;;;;;;;17.27;2.67;;;10.50;99.90;;;;;;5028150;28;20093;-35
2024/01/24 05:31:08;;;;;;;14.73;2.78;;;10.50;99.90;;;;;;5024786;28;20564;-35
2024/01/24 05:33:34;;;;;;;12.57;2.08;;;10.40;99.90;;;;;;5024674;28;20054;-35
2024/01/24 05:36:01;;;;;;;13.25;2.95;;;10.40;99.90;;;;;;5025136;28;20065;-35
2024/01/24 05:38:27;;;;;;;16.80;3.25;;;10.40;99.90;;;;;;5014449;28;20057;-35
2024/01/24 05:40:53;;;;;;;16.50;3.08;;;10.30;99.90;;;;;;5024127;28;20506;-35
2024/01/24 05:43:19;;;;;;;18.58;3.78;;;10.30;99.90;;;;;;5023424;28;20049;-35
2024/01/24 05:45:49;;;;;;;18.23;3.08;;;10.30;99.90;;;;;;5025427;28;20557;-35
2024/01/24 05:48:15;;;;;;;16.88;4.72;;;10.30;99.90;;;;;;5028403;28;20055;-35
2024/01/24 05:50:41;;;;;;;15.30;2.67;;;10.20;99.90;;;;;;5005237;28;20053;-35
2024/01/24 05:53:07;;;;;;;19.92;3.42;;;10.10;99.90;;;;;;5025376;28;20056;-35
2024/01/24 05:55:33;;;;;;;21.45;2.90;;;10.20;99.90;;;;;;5030492;28;20053;-35
2024/01/24 05:57:59;;;;;;;23.15;3.72;;;10.10;99.90;;;;;;5020045;28;22472;-35
2024/01/24 06:00:25;;;;;;;13.40;2.42;;;10.10;99.90;;;;;;5027014;28;21144;-35
2024/01/24 06:02:50;;;;;;;22.58;3.20;;;10.00;99.90;;;;;;5027912;28;20057;-35
2024/01/24 06:05:16;;;;;;;19.02;3.47;;;10.00;99.90;;;;;;5025857;28;20707;-35
2024/01/24 06:07:42;;;;;;;20.73;3.35;;;10.00;99.90;;;;;;5027002;28;20088;-35
2024/01/24 06:10:08;;;;;;;22.88;3.92;;;10.00;99.90;;;;;;5026007;28;20040;-35
2024/01/24 06:12:34;;;;;;;20.42;4.20;;;10.00;99.90;;;;;;5025343;28;20239;-35
2024/01/24 06:15:00;;;;;;;21.27;3.38;;;10.00;99.90;;;;;;5024438;28;20160;-35
2024/01/24 06:17:25;;;;;;;18.85;3.88;;;9.90;99.90;;;;;;5028877;28;20061;-34
2024/01/24 06:19:51;;;;;;;20.90;4.13;;;9.90;99.90;;;;;;5019768;28;20044;-34
2024/01/24 06:22:17;;;;;;;17.58;3.30;;;9.90;99.90;;;;;;5024363;28;20056;-36
2024/01/24 06:24:44;;;;;;;20.02;3.90;;;9.90;99.90;;;;;;5026236;28;20099;-34
2024/01/24 06:27:10;;;;;;;20.05;4.13;;;9.90;99.90;;;;;;5026246;28;20050;-36
2024/01/24 06:29:36;;;;;;;16.92;3.97;;;9.90;99.90;;;;;;5020124;28;20057;-34
2024/01/24 06:32:02;;;;;;;21.65;3.45;;;10.00;99.90;;;;;;5022253;28;20517;-34
2024/01/24 06:34:27;;;;;;;29.88;4.70;;;10.00;99.90;;;;;;5024954;28;20680;-35
2024/01/24 06:36:53;;;;;;;22.83;5.03;;;10.00;99.90;;;;;;5022666;28;20063;-35
2024/01/24 06:39:19;;;;;;;15.23;2.80;;;10.10;99.90;;;;;;5029085;28;20170;-35
2024/01/24 06:41:45;;;;;;;19.38;4.40;;;10.10;99.90;;;;;;5027438;28;20107;-35
2024/01/24 06:44:10;;;;;;;21.10;3.72;;;10.10;99.90;;;;;;5022014;28;20547;-35
2024/01/24 06:46:43;;;;;;;25.80;3.75;;;10.10;99.90;;;;;;5035256;28;20053;-34
2024/01/24 06:49:11;;;;;;;;;;;10.10;99.90;;;;;;5028095;28;20494;-35
2024/01/24 06:51:38;;;;;;;28.23;4.85;;;10.10;99.90;;;;;;5027677;28;19916;-35
2024/01/24 06:54:07;;;;;;;28.73;4.78;;;10.20;99.90;;;;;;5034825;28;20055;-35
2024/01/24 06:56:33;;;;;;;20.58;3.65;;;10.20;99.90;;;;;;5029456;28;20049;-35
2024/01/24 06:58:59;;;;;;;18.60;3.00;;;10.20;99.90;;;;;;5029139;28;20056;-35
2024/01/24 07:01:26;;;;;;;22.33;4.20;;;10.20;99.90;;;;;;5023627;28;20263;-35
2024/01/24 07:03:52;;;;;;;19.38;4.70;;;10.20;99.90;;;;;;5026178;28;20491;-35
2024/01/24 07:06:18;;;;;;;25.55;4.10;;;10.20;99.90;;;;;;5023073;28;20049;-35
2024/01/24 07:08:44;;;;;;;19.98;3.70;;;10.20;99.90;;;;;;5023501;28;20491;-35
2024/01/24 07:11:10;;;;;;;16.85;2.88;;;10.20;99.90;;;;;;5016833;28;20073;-35
2024/01/24 07:13:36;;;;;;;14.82;3.40;;;10.30;99.90;;;;;;5025923;28;20171;-35
2024/01/24 07:16:04;;;;;;;19.17;4.35;;;10.20;99.90;;;;;;5032442;28;20072;-35
2024/01/24 07:18:33;;;;;;;22.95;5.10;;;10.20;99.90;;;;;;5016680;28;20415;-35
2024/01/24 07:21:06;;;;;;;24.52;3.95;;;10.20;99.90;;;;;;5021042;28;20056;-35
2024/01/24 07:23:32;;;;;;;22.85;5.00;;;10.30;99.90;;;;;;5021282;28;20046;-35
2024/01/24 07:25:58;;;;;;;21.40;4.03;;;10.30;99.90;;;;;;5025020;28;20104;-44
2024/01/24 07:28:23;;;;;;;24.65;3.80;;;10.20;99.90;;;;;;5031061;28;20054;-35
2024/01/24 07:30:49;;;;;;;22.73;4.35;;;10.20;99.90;;;;;;5026156;28;20693;-34
2024/01/24 07:33:15;;;;;;;22.88;4.55;;;10.10;99.90;;;;;;5020073;28;20054;-34
2024/01/24 07:35:41;;;;;;;24.73;4.30;;;10.10;99.90;;;;;;5025155;28;20057;-35
2024/01/24 07:38:07;;;;;;;26.13;4.75;;;10.00;99.90;;;;;;5033114;28;20043;-34
2024/01/24 07:40:32;;;;;;;20.85;3.70;;;10.00;99.90;;;;;;5019026;28;20037;-34
2024/01/24 07:42:58;;;;;;;22.00;4.65;;;10.00;99.90;;;;;;5025444;28;20135;-34
2024/01/24 07:45:24;;;;;;;21.27;4.30;;;10.00;99.90;;;;;;5021925;28;20512;-34
2024/01/24 07:47:51;;;;;;;20.45;4.47;;;9.90;99.90;;;;;;5019071;28;20052;-34
2024/01/24 07:50:17;;;;;;;25.50;3.67;;;9.90;99.90;;;;;;5021273;28;20413;-34
2024/01/24 07:52:43;;;;;;;22.20;4.22;;;9.90;99.90;;;;;;5035598;28;20182;-36
2024/01/24 07:55:10;;;;;;;21.27;3.83;;;9.90;99.90;;;;;;5034251;28;20056;-36
2024/01/24 07:57:36;;;;;;;22.50;3.88;;;9.80;99.90;;;;;;5032459;28;20645;-35
2024/01/24 08:00:04;;;;;;;20.27;3.53;;;9.80;99.90;;;;;;5019438;28;20051;-35
2024/01/24 08:02:30;;;;;;;18.38;3.55;;;9.80;99.90;;;;;;5017828;28;20494;-36
2024/01/24 08:04:57;;;;;;;25.80;4.00;;;9.80;99.90;;;;;;5034776;28;20525;-36
2024/01/24 08:07:23;;;;;;;23.80;4.63;;;9.80;99.90;;;;;;5021431;28;20485;-36
2024/01/24 08:09:55;;;;;;;20.90;4.38;;;9.80;99.90;;;;;;5006683;28;20049;-36
2024/01/24 08:12:20;;;;;;;21.35;4.28;;;9.80;99.90;;;;;;5028165;28;20061;-35
2024/01/24 08:14:46;;;;;;;26.48;4.65;;;9.90;99.90;;;;;;5026364;28;20074;-36
2024/01/24 08:17:13;;;;;;;22.33;3.63;;;9.90;99.90;;;;;;5022648;28;20437;-36
2024/01/24 08:19:39;;;;;;;26.58;5.35;;;9.90;99.90;;;;;;5020464;28;20069;-36
2024/01/24 08:22:05;;;;;;;35.40;5.00;;;9.90;99.90;;;;;;5019715;28;20369;-35
2024/01/24 08:24:31;;;;;;;25.65;4.70;;;9.90;99.90;;;;;;5035041;28;20056;-36
2024/01/24 08:26:56;;;;;;;20.05;4.72;;;9.80;99.90;;;;;;5020475;28;20046;-36
2024/01/24 08:29:25;;;;;;;21.15;4.63;;;9.80;99.90;;;;;;5023831;28;20046;-36
2024/01/24 08:31:51;;;;;;;23.55;4.55;;;9.90;99.90;;;;;;5031700;28;20053;-36
2024/01/24 08:34:17;;;;;;;23.42;3.95;;;9.90;99.90;;;;;;5021692;28;20060;-36
2024/01/24 08:36:43;;;;;;;22.63;4.60;;;9.90;99.90;;;;;;5026801;28;20557;-36
2024/01/24 08:39:10;;;;;;;25.02;4.22;;;9.90;99.90;;;;;;5029692;28;20047;-35
2024/01/24 08:41:36;;;;;;;21.65;4.05;;;9.90;99.90;;;;;;5023494;28;21225;-36
2024/01/24 08:44:02;;;;;;;25.90;5.53;;;9.90;99.90;;;;;;5028399;28;20511;-36
2024/01/24 08:46:28;;;;;;;20.83;5.60;;;9.90;99.90;;;;;;5027334;28;20060;-36
2024/01/24 08:48:54;;;;;;;15.02;4.40;;;10.00;99.90;;;;;;5035694;28;20053;-36
2024/01/24 08:51:21;;;;;;;20.60;4.10;;;9.90;99.90;;;;;;5023670;28;20616;-35
2024/01/24 08:53:46;;;;;;;23.73;5.43;;;9.90;99.90;;;;;;5028299;28;20053;-36
2024/01/24 08:56:13;;;;;;;23.35;4.25;;;9.90;99.90;;;;;;5027276;28;20140;-35
2024/01/24 08:58:39;;;;;;;25.73;5.80;;;9.90;99.90;;;;;;5022148;28;20295;-35
2024/01/24 09:01:05;;;;;;;28.60;4.60;;;9.80;99.90;;;;;;5029585;28;20045;-35
2024/01/24 09:03:31;;;;;;;21.80;4.50;;;9.80;99.90;;;;;;5021616;28;20045;-35
2024/01/24 09:05:57;;;;;;;22.20;4.75;;;9.80;99.90;;;;;;5024976;28;20106;-35
2024/01/24 09:08:23;;;;;;;23.15;4.95;;;9.70;99.90;;;;;;5028253;28;20076;-34
2024/01/24 09:10:48;;;;;;;24.23;4.20;;;9.80;99.90;;;;;;5026911;28;20136;-34
2024/01/24 09:13:19;;;;;;;18.15;3.85;;;9.80;99.90;;;;;;5018654;28;20547;-35
2024/01/24 09:15:45;;;;;;;21.85;4.35;;;9.80;99.90;;;;;;5030265;28;20044;-34
2024/01/24 09:18:10;;;;;;;19.63;2.97;;;9.80;99.90;;;;;;5019071;28;20045;-34
2024/01/24 09:20:36;;;;;;;21.80;4.55;;;9.90;99.90;;;;;;5029387;28;20052;-35
2024/01/24 09:23:02;;;;;;;20.30;3.90;;;9.90;99.90;;;;;;5031153;28;20490;-36
2024/01/24 09:25:27;;;;;;;20.70;3.85;;;10.00;99.90;;;;;;5020531;28;20199;-33
2024/01/24 09:27:55;;;;;;;33.72;5.00;;;10.00;99.90;;;;;;5022995;28;20081;-33
2024/01/24 09:30:21;;;;;;;21.00;3.95;;;10.10;99.90;;;;;;5024762;28;20057;-34
2024/01/24 09:32:47;;;;;;;26.05;4.70;;;10.00;99.90;;;;;;5024941;28;20136;-34
2024/01/24 09:35:13;;;;;;;20.80;4.43;;;10.00;99.90;;;;;;5020928;28;20144;-34
2024/01/24 09:37:39;;;;;;;26.02;4.30;;;10.00;99.90;;;;;;5026070;28;20056;-34
2024/01/24 09:40:06;;;;;;;14.98;4.93;;;10.00;99.90;;;;;;5023107;28;20065;-34
2024/01/24 09:42:39;;;;;;;22.52;3.95;;;9.90;99.90;;;;;;5029131;28;20054;-34
2024/01/24 09:45:07;;;;;;;;;;;10.00;99.90;;;;;;5025293;28;20053;-34
2024/01/24 09:47:33;;;;;;;20.85;4.65;;;10.00;99.90;;;;;;5037972;28;19932;-34
2024/01/24 09:50:02;;;;;;;20.92;4.28;;;10.00;99.90;;;;;;5025231;28;20053;-34
2024/01/24 09:52:28;;;;;;;19.35;3.72;;;10.00;99.90;;;;;;5028417;28;20087;-34
2024/01/24 09:54:59;;;;;;;19.88;4.53;;;10.00;99.90;;;;;;5028164;28;20414;-34
2024/01/24 09:57:26;;;;;;;18.55;4.75;;;10.00;99.90;;;;;;5025727;28;20676;-34
2024/01/24 09:59:52;;;;;;;21.35;3.95;;;10.10;99.90;;;;;;5033050;28;20526;-34
2024/01/24 10:02:18;;;;;;;20.42;4.68;;;10.10;99.90;;;;;;5029955;28;20049;-34
2024/01/24 10:04:44;;;;;;;17.23;3.50;;;10.10;99.90;;;;;;5028051;28;20067;-34
2024/01/24 10:07:11;;;;;;;21.25;4.28;;;10.10;99.90;;;;;;5032138;28;20419;-36
2024/01/24 10:09:37;;;;;;;24.00;4.47;;;10.10;99.90;;;;;;5028441;28;20133;-35
2024/01/24 10:12:04;;;;;;;17.33;3.10;;;10.10;99.90;;;;;;5033169;28;20555;-34
2024/01/24 10:14:30;;;;;;;21.02;3.47;;;10.20;99.90;;;;;;5027963;28;20199;-35
2024/01/24 10:16:57;;;;;;;30.50;4.43;;;10.20;99.90;;;;;;5026958;28;20102;-34
2024/01/24 10:19:24;;;;;;;29.02;4.50;;;10.20;99.90;;;;;;5030259;28;20037;-35
2024/01/24 10:21:50;;;;;;;15.63;2.90;;;10.20;99.90;;;;;;5033026;28;20049;-34
2024/01/24 10:24:16;;;;;;;18.73;3.03;;;10.20;99.90;;;;;;5030637;28;20049;-34
2024/01/24 10:26:46;;;;;;;18.17;3.65;;;10.30;99.90;;;;;;5027684;28;20061;-34
2024/01/24 10:29:12;;;;;;;22.55;3.83;;;10.30;99.90;;;;;;5029553;28;20475;-34
2024/01/24 10:31:37;;;;;;;19.88;3.83;;;10.30;99.90;;;;;;5031586;28;20111;-35
2024/01/24 10:34:06;;;;;;;21.42;4.03;;;10.30;99.90;;;;;;5030831;28;20045;-34
2024/01/24 10:36:33;;;;;;;21.85;4.00;;;10.30;99.90;;;;;;5027871;28;20053;-36
2024/01/24 10:39:02;;;;;;;19.52;3.55;;;10.30;99.90;;;;;;5009913;28;20175;-34
2024/01/24 10:41:39;;;;;;;20.05;3.85;;;10.40;99.90;;;;;;5020334;28;20071;-34
2024/01/24 10:44:08;;;;;;;21.95;3.45;;;10.40;99.90;;;;;;5019735;28;20152;-34
2024/01/24 10:46:38;;;;;;;16.67;3.67;;;10.40;99.90;;;;;;5015311;28;20045;-34
2024/01/24 10:49:05;;;;;;;19.10;3.28;;;10.40;99.90;;;;;;5024833;28;20049;-34
2024/01/24 10:51:32;;;;;;;19.50;3.03;;;10.40;99.90;;;;;;5038290;28;20534;-34
2024/01/24 10:53:58;;;;;;;19.20;3.60;;;10.40;99.90;;;;;;5038615;28;20111;-35
2024/01/24 10:56:24;;;;;;;16.55;2.90;;;10.40;99.90;;;;;;5035474;28;20053;-35
2024/01/24 10:58:50;;;;;;;16.77;3.10;;;10.50;99.90;;;;;;5029658;28;20045;-35
2024/01/24 11:01:16;;;;;;;15.52;2.75;;;10.50;99.90;;;;;;5035081;28;20053;-36
2024/01/24 11:03:45;;;;;;;19.70;4.15;;;10.50;99.90;;;;;;5034145;28;20053;-35
2024/01/24 11:06:16;;;;;;;14.52;2.67;;;10.50;99.90;;;;;;5031240;28;20455;-36
2024/01/24 11:09:20;;;;;;;19.63;3.05;;;10.50;99.90;;;;;;5037036;28;20053;-35
2024/01/24 11:11:50;;;;;;;17.38;3.78;;;10.50;99.90;;;;;;5021161;28;20411;-35
2024/01/24 11:14:44;;;;;;;18.98;3.85;;;10.50;99.90;;;;;;5015627;28;20049;-33
2024/01/24 11:17:10;;;;;;;14.80;3.13;;;10.60;99.90;;;;;;5014395;28;20156;-35
2024/01/24 11:19:35;;;;;;;17.70;3.05;;;10.60;99.90;;;;;;5014067;28;20058;-34
2024/01/24 11:22:08;;;;;;;13.10;2.53;;;10.70;99.90;;;;;;5029358;28;20060;-37
2024/01/24 11:24:40;;;;;;;24.15;3.88;;;10.70;99.90;;;;;;5030417;28;20049;-34
2024/01/24 11:27:30;;;;;;;17.63;3.10;;;10.70;99.90;;;;;;5027906;28;20057;-34
2024/01/24 11:29:56;;;;;;;16.98;3.20;;;10.70;99.90;;;;;;5014939;28;20057;-34
2024/01/24 11:32:52;;;;;;;19.40;2.92;;;10.70;99.90;;;;;;5022969;28;20049;-34
2024/01/24 11:35:27;;;;;;;17.45;3.60;;;10.80;99.90;;;;;;5010235;28;20098;-36
2024/01/24 11:37:58;;;;;;;19.02;3.42;;;10.80;99.90;;;;;;5025181;28;20049;-34
2024/01/24 11:40:24;;;;;;;16.73;3.50;;;10.80;99.90;;;;;;5002685;28;20353;-35
2024/01/24 11:42:57;;;;;;;16.98;3.38;;;10.80;99.90;;;;;;5028164;28;20251;-34
2024/01/24 11:45:24;;;;;;;15.68;3.13;;;10.80;99.90;;;;;;5026453;28;20472;-34
2024/01/24 11:47:51;;;;;;;15.75;3.38;;;10.90;99.90;;;;;;5022346;28;20503;-35
2024/01/24 11:50:17;;;;;;;25.00;3.53;;;10.90;99.90;;;;;;5028753;28;20040;-36
2024/01/24 11:52:44;;;;;;;20.83;3.78;;;10.90;99.90;;;;;;5028089;28;20041;-35
2024/01/24 11:55:10;;;;;;;16.90;4.03;;;11.00;99.90;;;;;;5022820;28;20069;-35
2024/01/24 11:57:37;;;;;;;14.40;2.78;;;11.00;99.90;;;;;;5023212;28;20095;-35
2024/01/24 12:00:06;;;;;;;18.15;3.63;;;11.00;99.90;;;;;;5026050;28;20095;-35
2024/01/24 12:02:36;;;;;;;20.83;4.05;;;11.10;99.90;;;;;;5022590;28;20057;-35
2024/01/24 12:05:03;;;;;;;16.95;3.30;;;11.10;99.90;;;;;;5022551;28;20131;-35
2024/01/24 12:07:29;;;;;;;13.02;2.78;;;11.10;99.90;;;;;;5022150;28;20057;-35
2024/01/24 12:09:55;;;;;;;20.50;3.97;;;11.10;99.90;;;;;;5018184;28;20137;-35
2024/01/24 12:12:21;;;;;;;18.30;4.10;;;11.10;99.90;;;;;;5031631;28;20057;-35
2024/01/24 12:14:48;;;;;;;16.42;2.85;;;11.20;99.90;;;;;;5023540;28;20505;-35
2024/01/24 12:17:14;;;;;;;20.52;3.00;;;11.20;99.90;;;;;;5030769;28;20045;-35
2024/01/24 12:19:45;;;;;;;17.45;3.72;;;11.20;99.90;;;;;;5024229;28;20046;-35
2024/01/24 12:22:12;;;;;;;14.23;3.58;;;11.10;99.90;;;;;;5026559;28;20582;-35
2024/01/24 12:24:39;;;;;;;17.45;2.83;;;11.10;99.90;;;;;;5024323;28;20507;-35
2024/01/24 12:27:07;;;;;;;18.27;3.80;;;11.00;99.90;;;;;;5026085;28;20179;-35
2024/01/24 12:29:33;;;;;;;19.08;3.75;;;11.00;99.90;;;;;;5026192;28;20068;-35
2024/01/24 12:32:05;;;;;;;15.48;2.65;;;11.10;99.90;;;;;;5034276;28;20049;-35
2024/01/24 12:34:30;;;;;;;13.67;3.40;;;11.10;99.90;;;;;;5030513;28;20059;-35
2024/01/24 12:36:57;;;;;;;15.35;3.20;;;11.30;99.90;;;;;;5031153;28;20458;-35
2024/01/24 12:39:27;;;;;;;13.75;2.55;;;11.10;99.90;;;;;;5026304;28;20041;-35
2024/01/24 12:41:53;;;;;;;18.95;4.07;;;11.10;99.90;;;;;;5028934;28;20141;-35